Terminal Aerodrome Forecast
Issued by NWS Jacksonville, FL

Home | Current Version | Previous Version | Text Only | Print | Product List | Glossary On
Versions: 1 2 3 4 5 6 7 8 9 10 11 12 13 14 15 16 17 18 19 20 21
000
FTUS42 KJAX 171501 AAA
TAFSSI
TAF AMD
KSSI 171501Z 1715/1812 00000KT 1/4SM FG BKN002
     FM171700 VRB03KT 1SM BR BKN005
     FM171800 18005KT 5SM HZ SCT015 SCT250
     FM172000 15008KT P6SM SCT040 BKN250
     FM180400 00000KT 3SM BR SCT002
     FM180800 VRB03KT 1/2SM FG FEW002=

USA.gov is the U.S. government's official web portal to all federal, state and local government web resources and services.